Oro Valley, AZ

6:55 AM MST on August 29, 2015 (GMT -0700)
Rancho Vistoso | | Change Station
CLOSE
Current Station
Personal Weather Station
Location: Oro Valley, AZ
Elevation: 2792 ft
Nearby Weather Stations

Elev 2792 ft 32.43 °N, 110.97 °W | Updated 3 seconds ago

Clear
Clear
76.2 °F
Feels Like 78 °F
N
2.0
Wind Variable Wind from NNE
Gusts 3.0 mph

Today
High -- | Low -- °F
--% Chance of Precip.
Yesterday
High -- | Low -- °F
Precip. -- in
5:56 AM 6:52 PM
Full, 100% visible
Pressure 29.84 in
Visibility 10.0 miles
Clouds Clear
Heat Index 78 °F
Dew Point 59 °F
Humidity 56%
Rainfall 0.00 in
Snow Depth Not available.
UV 0 out of 12
Pollen 5.10 out of 12
Air Quality Not available.
Flu Activity Not available.
METAR KDMA 291258Z AUTO 13009KT 10SM CLR 25/15 A2998 RMK AO2 SLP103 T02460152 $
Pressure 29.84 in
Visibility 10.0 miles
Clouds Clear
Heat Index 78 °F
Dew Point 59 °F
Humidity 56%
Rainfall 0.00 in
Snow Depth Not available.
UV 0 out of 12
Pollen 5.10 out of 12
Air Quality Not available.
Flu Activity Not available.
METAR KDMA 291258Z AUTO 13009KT 10SM CLR 25/15 A2998 RMK AO2 SLP103 T02460152 $

10-Day Weather Forecast

×

Almanac

Astronomy

Aug. 29, 2015 Rise Set
Actual Time
Civil Twilight
Nautical Twilight
Astronomical Twilight
Moon
Length of Visible Light
Length of Day
Tomorrow will be .
, % of the Moon is Illuminated

Today's Extremes

State Highs State Lows

Community

WunderPhotos

Upload Photos

1,850,686 photos uploaded!

WunderBlogs® & News

Nearby

Air Quality

  Air Quality AQ Index Pollutant
Not available.

Snow Depth

Station Depth Elevation

Earthquake Activity

City Distance Mag. Time & Date
Minimum magnitude displayed is 2.5.

Coastal Water Temperatures

Place Temperature

Stations

Nearby Weather Stations

Station Location Temp. Windchill Dew Point Humidity Wind Precip. Elev Updated Type